sensor_id;sensor_type;location;lat;lon;timestamp;temperature;humidity
18041;DHT22;9145;48.588;9.250;2023-03-17T00:00:09;7.00;99.90
18041;DHT22;9145;48.588;9.250;2023-03-17T00:02:37;7.00;99.90
18041;DHT22;9145;48.588;9.250;2023-03-17T00:05:14;7.10;99.90
18041;DHT22;9145;48.588;9.250;2023-03-17T00:07:42;7.00;99.90
18041;DHT22;9145;48.588;9.250;2023-03-17T00:10:13;6.70;99.90
18041;DHT22;9145;48.588;9.250;2023-03-17T00:12:42;6.50;99.90
18041;DHT22;9145;48.588;9.250;2023-03-17T00:15:10;6.40;99.90
18041;DHT22;9145;48.588;9.250;2023-03-17T00:17:38;6.40;99.90
18041;DHT22;9145;48.588;9.250;2023-03-17T00:20:09;6.40;99.90
18041;DHT22;9145;48.588;9.250;2023-03-17T00:22:38;6.30;99.90
18041;DHT22;9145;48.588;9.250;2023-03-17T00:25:16;6.20;99.90
18041;DHT22;9145;48.588;9.250;2023-03-17T00:27:44;6.10;99.90
18041;DHT22;9145;48.588;9.250;2023-03-17T00:30:11;6.00;99.90
18041;DHT22;9145;48.588;9.250;2023-03-17T00:32:38;5.90;99.90
18041;DHT22;9145;48.588;9.250;2023-03-17T00:35:17;5.80;99.90
18041;DHT22;9145;48.588;9.250;2023-03-17T00:37:46;5.80;99.90
18041;DHT22;9145;48.588;9.250;2023-03-17T00:40:16;5.70;99.90
18041;DHT22;9145;48.588;9.250;2023-03-17T00:42:43;5.60;99.90
18041;DHT22;9145;48.588;9.250;2023-03-17T00:45:10;5.70;99.90
18041;DHT22;9145;48.588;9.250;2023-03-17T00:47:38;5.70;99.90
18041;DHT22;9145;48.588;9.250;2023-03-17T00:50:08;5.70;99.90
18041;DHT22;9145;48.588;9.250;2023-03-17T00:52:35;5.80;99.90
18041;DHT22;9145;48.588;9.250;2023-03-17T00:55:06;5.70;99.90
18041;DHT22;9145;48.588;9.250;2023-03-17T00:57:33;5.60;99.90
18041;DHT22;9145;48.588;9.250;2023-03-17T01:00:01;5.70;99.90
18041;DHT22;9145;48.588;9.250;2023-03-17T01:02:28;5.70;99.90
18041;DHT22;9145;48.588;9.250;2023-03-17T01:04:56;5.80;99.90
18041;DHT22;9145;48.588;9.250;2023-03-17T01:07:25;5.80;99.90
18041;DHT22;9145;48.588;9.250;2023-03-17T01:09:53;5.80;99.90
18041;DHT22;9145;48.588;9.250;2023-03-17T01:12:21;6.00;99.90
18041;DHT22;9145;48.588;9.250;2023-03-17T01:14:48;6.00;99.90
18041;DHT22;9145;48.588;9.250;2023-03-17T01:17:16;5.90;99.90
18041;DHT22;9145;48.588;9.250;2023-03-17T01:19:44;5.80;99.90
18041;DHT22;9145;48.588;9.250;2023-03-17T01:22:11;5.70;99.90
18041;DHT22;9145;48.588;9.250;2023-03-17T01:24:38;5.60;99.90
18041;DHT22;9145;48.588;9.250;2023-03-17T01:27:06;5.80;99.90
18041;DHT22;9145;48.588;9.250;2023-03-17T01:29:34;6.00;99.90
18041;DHT22;9145;48.588;9.250;2023-03-17T01:32:01;6.00;99.90
18041;DHT22;9145;48.588;9.250;2023-03-17T01:34:28;5.80;99.90
18041;DHT22;9145;48.588;9.250;2023-03-17T01:36:55;5.60;99.90
18041;DHT22;9145;48.588;9.250;2023-03-17T01:39:22;5.50;99.90
18041;DHT22;9145;48.588;9.250;2023-03-17T01:41:49;5.40;99.90
18041;DHT22;9145;48.588;9.250;2023-03-17T01:44:22;5.30;99.90
18041;DHT22;9145;48.588;9.250;2023-03-17T01:46:51;5.20;99.90
18041;DHT22;9145;48.588;9.250;2023-03-17T01:49:23;5.20;99.90
18041;DHT22;9145;48.588;9.250;2023-03-17T01:51:59;5.10;99.90
18041;DHT22;9145;48.588;9.250;2023-03-17T01:54:31;5.20;99.90
18041;DHT22;9145;48.588;9.250;2023-03-17T01:57:02;5.40;99.90
18041;DHT22;9145;48.588;9.250;2023-03-17T01:59:34;5.50;99.90
18041;DHT22;9145;48.588;9.250;2023-03-17T02:02:05;5.40;99.90
18041;DHT22;9145;48.588;9.250;2023-03-17T02:04:33;5.40;99.90
18041;DHT22;9145;48.588;9.250;2023-03-17T02:07:01;5.30;99.90
18041;DHT22;9145;48.588;9.250;2023-03-17T02:09:30;5.30;99.90
18041;DHT22;9145;48.588;9.250;2023-03-17T02:11:59;5.20;99.90
18041;DHT22;9145;48.588;9.250;2023-03-17T02:14:27;5.30;99.90
18041;DHT22;9145;48.588;9.250;2023-03-17T02:16:54;5.30;99.90
18041;DHT22;9145;48.588;9.250;2023-03-17T02:19:23;5.20;99.90
18041;DHT22;9145;48.588;9.250;2023-03-17T02:21:52;5.10;99.90
18041;DHT22;9145;48.588;9.250;2023-03-17T02:24:24;5.10;99.90
18041;DHT22;9145;48.588;9.250;2023-03-17T02:26:54;5.20;99.90
18041;DHT22;9145;48.588;9.250;2023-03-17T02:29:23;5.30;99.90
18041;DHT22;9145;48.588;9.250;2023-03-17T02:31:49;5.40;99.90
18041;DHT22;9145;48.588;9.250;2023-03-17T02:34:16;5.50;99.90
18041;DHT22;9145;48.588;9.250;2023-03-17T02:36:43;5.40;99.90
18041;DHT22;9145;48.588;9.250;2023-03-17T02:39:12;5.40;99.90
18041;DHT22;9145;48.588;9.250;2023-03-17T02:41:39;5.40;99.90
18041;DHT22;9145;48.588;9.250;2023-03-17T02:44:06;5.30;99.90
18041;DHT22;9145;48.588;9.250;2023-03-17T02:46:33;5.20;99.90
18041;DHT22;9145;48.588;9.250;2023-03-17T02:49:00;5.20;99.90
18041;DHT22;9145;48.588;9.250;2023-03-17T02:51:27;5.20;99.90
18041;DHT22;9145;48.588;9.250;2023-03-17T02:53:54;5.30;99.90
18041;DHT22;9145;48.588;9.250;2023-03-17T02:56:22;5.20;99.90
18041;DHT22;9145;48.588;9.250;2023-03-17T02:58:49;5.20;99.90
18041;DHT22;9145;48.588;9.250;2023-03-17T03:01:17;5.10;99.90
18041;DHT22;9145;48.588;9.250;2023-03-17T03:03:45;5.10;99.90
18041;DHT22;9145;48.588;9.250;2023-03-17T03:06:13;5.00;99.90
18041;DHT22;9145;48.588;9.250;2023-03-17T03:08:39;4.90;99.90
18041;DHT22;9145;48.588;9.250;2023-03-17T03:11:06;4.90;99.90
18041;DHT22;9145;48.588;9.250;2023-03-17T03:13:35;4.90;99.90
18041;DHT22;9145;48.588;9.250;2023-03-17T03:16:02;4.80;99.90
18041;DHT22;9145;48.588;9.250;2023-03-17T03:18:29;4.80;99.90
18041;DHT22;9145;48.588;9.250;2023-03-17T03:20:57;4.70;99.90
18041;DHT22;9145;48.588;9.250;2023-03-17T03:23:24;4.70;99.90
18041;DHT22;9145;48.588;9.250;2023-03-17T03:25:51;4.70;99.90
18041;DHT22;9145;48.588;9.250;2023-03-17T03:28:18;4.70;99.90
18041;DHT22;9145;48.588;9.250;2023-03-17T03:30:46;4.70;99.90
18041;DHT22;9145;48.588;9.250;2023-03-17T03:33:13;4.80;99.90
18041;DHT22;9145;48.588;9.250;2023-03-17T03:35:41;4.80;99.90
18041;DHT22;9145;48.588;9.250;2023-03-17T03:38:09;4.80;99.90
18041;DHT22;9145;48.588;9.250;2023-03-17T03:40:36;4.80;99.90
18041;DHT22;9145;48.588;9.250;2023-03-17T03:43:03;4.80;99.90
18041;DHT22;9145;48.588;9.250;2023-03-17T03:45:31;4.80;99.90
18041;DHT22;9145;48.588;9.250;2023-03-17T03:47:59;4.80;99.90
18041;DHT22;9145;48.588;9.250;2023-03-17T03:50:26;4.70;99.90
18041;DHT22;9145;48.588;9.250;2023-03-17T03:52:53;4.70;99.90
18041;DHT22;9145;48.588;9.250;2023-03-17T03:55:20;4.60;99.90
18041;DHT22;9145;48.588;9.250;2023-03-17T03:57:47;4.70;99.90
18041;DHT22;9145;48.588;9.250;2023-03-17T04:00:14;4.70;99.90
18041;DHT22;9145;48.588;9.250;2023-03-17T04:02:42;4.70;99.90
18041;DHT22;9145;48.588;9.250;2023-03-17T04:05:11;4.60;99.90
18041;DHT22;9145;48.588;9.250;2023-03-17T04:07:38;4.70;99.90
18041;DHT22;9145;48.588;9.250;2023-03-17T04:10:07;4.70;99.90
18041;DHT22;9145;48.588;9.250;2023-03-17T04:12:34;4.70;99.90
18041;DHT22;9145;48.588;9.250;2023-03-17T04:15:01;4.60;99.90
18041;DHT22;9145;48.588;9.250;2023-03-17T04:17:27;4.60;99.90
18041;DHT22;9145;48.588;9.250;2023-03-17T04:19:54;4.60;99.90
18041;DHT22;9145;48.588;9.250;2023-03-17T04:22:23;4.50;99.90
18041;DHT22;9145;48.588;9.250;2023-03-17T04:24:49;4.50;99.90
18041;DHT22;9145;48.588;9.250;2023-03-17T04:27:17;4.40;99.90
18041;DHT22;9145;48.588;9.250;2023-03-17T04:29:44;4.40;99.90
18041;DHT22;9145;48.588;9.250;2023-03-17T04:32:11;4.40;99.90
18041;DHT22;9145;48.588;9.250;2023-03-17T04:34:39;4.40;99.90
18041;DHT22;9145;48.588;9.250;2023-03-17T04:37:08;4.50;99.90
18041;DHT22;9145;48.588;9.250;2023-03-17T04:39:36;4.50;99.90
18041;DHT22;9145;48.588;9.250;2023-03-17T04:42:03;4.60;99.90
18041;DHT22;9145;48.588;9.250;2023-03-17T04:44:30;4.60;99.90
18041;DHT22;9145;48.588;9.250;2023-03-17T04:46:57;4.80;99.90
18041;DHT22;9145;48.588;9.250;2023-03-17T04:49:24;4.80;99.90
18041;DHT22;9145;48.588;9.250;2023-03-17T04:51:51;4.70;99.90
18041;DHT22;9145;48.588;9.250;2023-03-17T04:54:18;4.60;99.90
18041;DHT22;9145;48.588;9.250;2023-03-17T04:56:47;4.50;99.90
18041;DHT22;9145;48.588;9.250;2023-03-17T04:59:13;4.50;99.90
18041;DHT22;9145;48.588;9.250;2023-03-17T05:01:40;4.40;99.90
18041;DHT22;9145;48.588;9.250;2023-03-17T05:04:07;4.50;99.90
18041;DHT22;9145;48.588;9.250;2023-03-17T05:06:34;4.50;99.90
18041;DHT22;9145;48.588;9.250;2023-03-17T05:09:02;4.40;99.90
18041;DHT22;9145;48.588;9.250;2023-03-17T05:11:29;4.30;99.90
18041;DHT22;9145;48.588;9.250;2023-03-17T05:13:58;4.20;99.90
18041;DHT22;9145;48.588;9.250;2023-03-17T05:16:24;4.10;99.90
18041;DHT22;9145;48.588;9.250;2023-03-17T05:18:51;4.10;99.90
18041;DHT22;9145;48.588;9.250;2023-03-17T05:21:19;4.00;99.90
18041;DHT22;9145;48.588;9.250;2023-03-17T05:23:46;4.00;99.90
18041;DHT22;9145;48.588;9.250;2023-03-17T05:26:13;4.10;99.90
18041;DHT22;9145;48.588;9.250;2023-03-17T05:28:40;4.10;99.90
18041;DHT22;9145;48.588;9.250;2023-03-17T05:31:08;4.00;99.90
18041;DHT22;9145;48.588;9.250;2023-03-17T05:33:36;4.00;99.90
18041;DHT22;9145;48.588;9.250;2023-03-17T05:36:03;4.00;99.90
18041;DHT22;9145;48.588;9.250;2023-03-17T05:38:30;3.90;99.90
18041;DHT22;9145;48.588;9.250;2023-03-17T05:40:57;3.80;99.90
18041;DHT22;9145;48.588;9.250;2023-03-17T05:43:24;3.70;99.90
18041;DHT22;9145;48.588;9.250;2023-03-17T05:45:51;3.60;99.90
18041;DHT22;9145;48.588;9.250;2023-03-17T05:48:19;3.70;99.90
18041;DHT22;9145;48.588;9.250;2023-03-17T05:50:47;3.80;99.90
18041;DHT22;9145;48.588;9.250;2023-03-17T05:53:14;3.80;99.90
18041;DHT22;9145;48.588;9.250;2023-03-17T05:55:41;3.90;99.90
18041;DHT22;9145;48.588;9.250;2023-03-17T05:58:08;3.90;99.90
18041;DHT22;9145;48.588;9.250;2023-03-17T06:00:35;4.00;99.90
18041;DHT22;9145;48.588;9.250;2023-03-17T06:03:03;4.10;99.90
18041;DHT22;9145;48.588;9.250;2023-03-17T06:05:32;4.10;99.90
18041;DHT22;9145;48.588;9.250;2023-03-17T06:07:59;4.00;99.90
18041;DHT22;9145;48.588;9.250;2023-03-17T06:10:26;4.20;99.90
18041;DHT22;9145;48.588;9.250;2023-03-17T06:12:53;4.40;99.90
18041;DHT22;9145;48.588;9.250;2023-03-17T06:15:20;4.30;99.90
18041;DHT22;9145;48.588;9.250;2023-03-17T06:17:47;4.20;99.90
18041;DHT22;9145;48.588;9.250;2023-03-17T06:20:14;4.10;99.90
18041;DHT22;9145;48.588;9.250;2023-03-17T06:22:43;4.10;99.90
18041;DHT22;9145;48.588;9.250;2023-03-17T06:25:10;4.10;99.90
18041;DHT22;9145;48.588;9.250;2023-03-17T06:27:37;4.00;99.90
18041;DHT22;9145;48.588;9.250;2023-03-17T06:30:07;4.00;99.90
18041;DHT22;9145;48.588;9.250;2023-03-17T06:32:36;4.10;99.90
18041;DHT22;9145;48.588;9.250;2023-03-17T06:35:03;4.10;99.90
18041;DHT22;9145;48.588;9.250;2023-03-17T06:37:31;4.30;99.90
18041;DHT22;9145;48.588;9.250;2023-03-17T06:40:00;4.30;99.90
18041;DHT22;9145;48.588;9.250;2023-03-17T06:42:28;4.40;99.90
18041;DHT22;9145;48.588;9.250;2023-03-17T06:44:56;4.40;99.90
18041;DHT22;9145;48.588;9.250;2023-03-17T06:47:22;4.40;99.90
18041;DHT22;9145;48.588;9.250;2023-03-17T06:49:50;4.40;99.90
18041;DHT22;9145;48.588;9.250;2023-03-17T06:52:16;4.50;99.90
18041;DHT22;9145;48.588;9.250;2023-03-17T06:54:43;4.50;99.90
18041;DHT22;9145;48.588;9.250;2023-03-17T06:57:11;4.60;99.90
18041;DHT22;9145;48.588;9.250;2023-03-17T06:59:38;4.70;99.90
18041;DHT22;9145;48.588;9.250;2023-03-17T07:02:06;4.80;99.90
18041;DHT22;9145;48.588;9.250;2023-03-17T07:04:33;4.90;99.90
18041;DHT22;9145;48.588;9.250;2023-03-17T07:07:02;5.00;99.90
18041;DHT22;9145;48.588;9.250;2023-03-17T07:09:30;5.20;99.90
18041;DHT22;9145;48.588;9.250;2023-03-17T07:11:57;5.20;99.90
18041;DHT22;9145;48.588;9.250;2023-03-17T07:14:31;5.40;99.90
18041;DHT22;9145;48.588;9.250;2023-03-17T07:17:00;5.50;99.90
18041;DHT22;9145;48.588;9.250;2023-03-17T07:19:26;5.60;99.90
18041;DHT22;9145;48.588;9.250;2023-03-17T07:21:53;5.60;99.90
18041;DHT22;9145;48.588;9.250;2023-03-17T07:24:21;5.70;99.90
18041;DHT22;9145;48.588;9.250;2023-03-17T07:26:48;5.80;99.90
18041;DHT22;9145;48.588;9.250;2023-03-17T07:29:15;5.70;99.90
18041;DHT22;9145;48.588;9.250;2023-03-17T07:31:44;5.80;99.90
18041;DHT22;9145;48.588;9.250;2023-03-17T07:34:11;5.80;99.90
18041;DHT22;9145;48.588;9.250;2023-03-17T07:36:38;5.80;99.90
18041;DHT22;9145;48.588;9.250;2023-03-17T07:39:06;5.90;99.90
18041;DHT22;9145;48.588;9.250;2023-03-17T07:41:33;5.90;99.90
18041;DHT22;9145;48.588;9.250;2023-03-17T07:44:01;6.00;99.90
18041;DHT22;9145;48.588;9.250;2023-03-17T07:46:28;6.10;99.90
18041;DHT22;9145;48.588;9.250;2023-03-17T07:48:56;6.20;99.90
18041;DHT22;9145;48.588;9.250;2023-03-17T07:51:23;6.40;99.90
18041;DHT22;9145;48.588;9.250;2023-03-17T07:53:52;6.50;99.90
18041;DHT22;9145;48.588;9.250;2023-03-17T07:56:20;6.70;99.90
18041;DHT22;9145;48.588;9.250;2023-03-17T07:58:47;6.90;99.90
18041;DHT22;9145;48.588;9.250;2023-03-17T08:01:13;7.00;99.90
18041;DHT22;9145;48.588;9.250;2023-03-17T08:03:40;7.10;99.90
18041;DHT22;9145;48.588;9.250;2023-03-17T08:06:09;7.20;99.90
18041;DHT22;9145;48.588;9.250;2023-03-17T08:08:36;7.20;99.90
18041;DHT22;9145;48.588;9.250;2023-03-17T08:11:03;7.20;99.90
18041;DHT22;9145;48.588;9.250;2023-03-17T08:13:31;7.20;99.90
18041;DHT22;9145;48.588;9.250;2023-03-17T08:15:58;7.20;99.90
18041;DHT22;9145;48.588;9.250;2023-03-17T08:18:25;7.30;99.90
18041;DHT22;9145;48.588;9.250;2023-03-17T08:20:52;7.30;99.90
18041;DHT22;9145;48.588;9.250;2023-03-17T08:23:20;7.40;99.90
18041;DHT22;9145;48.588;9.250;2023-03-17T08:25:48;7.50;99.90
18041;DHT22;9145;48.588;9.250;2023-03-17T08:28:14;7.70;99.90
18041;DHT22;9145;48.588;9.250;2023-03-17T08:30:41;7.90;99.90
18041;DHT22;9145;48.588;9.250;2023-03-17T08:33:09;8.20;99.90
18041;DHT22;9145;48.588;9.250;2023-03-17T08:35:36;8.30;99.90
18041;DHT22;9145;48.588;9.250;2023-03-17T08:38:06;8.30;99.90
18041;DHT22;9145;48.588;9.250;2023-03-17T08:40:34;8.40;99.90
18041;DHT22;9145;48.588;9.250;2023-03-17T08:43:02;8.40;99.90
18041;DHT22;9145;48.588;9.250;2023-03-17T08:45:29;8.60;99.90
18041;DHT22;9145;48.588;9.250;2023-03-17T08:47:56;8.70;99.90
18041;DHT22;9145;48.588;9.250;2023-03-17T08:50:23;8.80;99.90
18041;DHT22;9145;48.588;9.250;2023-03-17T08:52:50;9.00;99.90
18041;DHT22;9145;48.588;9.250;2023-03-17T08:55:18;9.10;99.90
18041;DHT22;9145;48.588;9.250;2023-03-17T08:57:47;9.10;99.90
18041;DHT22;9145;48.588;9.250;2023-03-17T09:00:16;9.20;99.90
18041;DHT22;9145;48.588;9.250;2023-03-17T09:02:45;9.20;99.90
18041;DHT22;9145;48.588;9.250;2023-03-17T09:05:13;9.40;99.90
18041;DHT22;9145;48.588;9.250;2023-03-17T09:07:41;9.50;99.90
18041;DHT22;9145;48.588;9.250;2023-03-17T09:10:09;9.60;99.90
18041;DHT22;9145;48.588;9.250;2023-03-17T09:12:36;9.70;99.90
18041;DHT22;9145;48.588;9.250;2023-03-17T09:15:06;9.80;99.90
18041;DHT22;9145;48.588;9.250;2023-03-17T09:17:33;10.00;99.90
18041;DHT22;9145;48.588;9.250;2023-03-17T09:20:00;10.20;99.90
18041;DHT22;9145;48.588;9.250;2023-03-17T09:22:28;10.40;99.90
18041;DHT22;9145;48.588;9.250;2023-03-17T09:24:55;10.50;99.90
18041;DHT22;9145;48.588;9.250;2023-03-17T09:27:22;10.70;99.90
18041;DHT22;9145;48.588;9.250;2023-03-17T09:29:49;10.80;99.90
18041;DHT22;9145;48.588;9.250;2023-03-17T09:32:17;10.90;99.90
18041;DHT22;9145;48.588;9.250;2023-03-17T09:34:44;11.20;99.90
18041;DHT22;9145;48.588;9.250;2023-03-17T09:37:13;11.50;99.90
18041;DHT22;9145;48.588;9.250;2023-03-17T09:39:39;11.70;99.90
18041;DHT22;9145;48.588;9.250;2023-03-17T09:42:15;11.80;99.90
18041;DHT22;9145;48.588;9.250;2023-03-17T09:44:58;12.20;99.90
18041;DHT22;9145;48.588;9.250;2023-03-17T09:47:48;12.40;99.90
18041;DHT22;9145;48.588;9.250;2023-03-17T09:50:21;12.30;99.90
18041;DHT22;9145;48.588;9.250;2023-03-17T09:52:50;12.40;99.90
18041;DHT22;9145;48.588;9.250;2023-03-17T09:55:26;12.60;99.90
18041;DHT22;9145;48.588;9.250;2023-03-17T09:57:55;12.80;99.90
18041;DHT22;9145;48.588;9.250;2023-03-17T10:00:24;13.00;99.90
18041;DHT22;9145;48.588;9.250;2023-03-17T10:02:55;13.10;99.90
18041;DHT22;9145;48.588;9.250;2023-03-17T10:05:27;13.10;99.90
18041;DHT22;9145;48.588;9.250;2023-03-17T10:08:01;13.20;99.90
18041;DHT22;9145;48.588;9.250;2023-03-17T10:10:36;13.20;99.90
18041;DHT22;9145;48.588;9.250;2023-03-17T10:13:15;13.30;99.90
18041;DHT22;9145;48.588;9.250;2023-03-17T10:15:48;13.40;99.90
18041;DHT22;9145;48.588;9.250;2023-03-17T10:18:23;13.70;99.90
18041;DHT22;9145;48.588;9.250;2023-03-17T10:20:54;13.90;99.90
18041;DHT22;9145;48.588;9.250;2023-03-17T10:23:25;14.20;99.90
18041;DHT22;9145;48.588;9.250;2023-03-17T10:25:55;14.40;99.90
18041;DHT22;9145;48.588;9.250;2023-03-17T10:28:27;14.40;99.90
18041;DHT22;9145;48.588;9.250;2023-03-17T10:30:56;14.50;99.90
18041;DHT22;9145;48.588;9.250;2023-03-17T10:33:29;14.70;99.90
18041;DHT22;9145;48.588;9.250;2023-03-17T10:36:06;15.00;99.90
18041;DHT22;9145;48.588;9.250;2023-03-17T10:38:34;15.20;99.90
18041;DHT22;9145;48.588;9.250;2023-03-17T10:41:05;15.30;99.90
18041;DHT22;9145;48.588;9.250;2023-03-17T10:43:36;15.40;99.90
18041;DHT22;9145;48.588;9.250;2023-03-17T10:46:12;15.50;99.90
18041;DHT22;9145;48.588;9.250;2023-03-17T10:48:48;15.60;99.90
18041;DHT22;9145;48.588;9.250;2023-03-17T10:51:21;15.70;99.90
18041;DHT22;9145;48.588;9.250;2023-03-17T10:53:52;15.70;99.90
18041;DHT22;9145;48.588;9.250;2023-03-17T10:56:23;15.80;99.60
18041;DHT22;9145;48.588;9.250;2023-03-17T10:58:54;16.00;99.40
18041;DHT22;9145;48.588;9.250;2023-03-17T11:01:26;16.00;99.90
18041;DHT22;9145;48.588;9.250;2023-03-17T11:03:55;16.10;99.20
18041;DHT22;9145;48.588;9.250;2023-03-17T11:06:31;16.20;99.10
18041;DHT22;9145;48.588;9.250;2023-03-17T11:09:05;16.50;99.90
18041;DHT22;9145;48.588;9.250;2023-03-17T11:11:42;16.70;99.90
18041;DHT22;9145;48.588;9.250;2023-03-17T11:14:11;16.70;99.90
18041;DHT22;9145;48.588;9.250;2023-03-17T11:16:43;16.80;99.90
18041;DHT22;9145;48.588;9.250;2023-03-17T11:19:15;16.90;99.90
18041;DHT22;9145;48.588;9.250;2023-03-17T11:21:49;17.20;99.90
18041;DHT22;9145;48.588;9.250;2023-03-17T11:24:24;17.10;99.90
18041;DHT22;9145;48.588;9.250;2023-03-17T11:26:58;16.90;99.90
18041;DHT22;9145;48.588;9.250;2023-03-17T11:29:37;17.00;99.90
18041;DHT22;9145;48.588;9.250;2023-03-17T11:32:24;17.20;99.90
18041;DHT22;9145;48.588;9.250;2023-03-17T11:35:04;17.30;99.90
18041;DHT22;9145;48.588;9.250;2023-03-17T11:38:03;17.40;99.90
18041;DHT22;9145;48.588;9.250;2023-03-17T11:40:39;17.50;99.90
18041;DHT22;9145;48.588;9.250;2023-03-17T11:43:22;17.70;99.90
18041;DHT22;9145;48.588;9.250;2023-03-17T11:45:56;17.80;99.90
18041;DHT22;9145;48.588;9.250;2023-03-17T11:48:35;18.00;99.90
18041;DHT22;9145;48.588;9.250;2023-03-17T11:51:13;18.10;99.90
18041;DHT22;9145;48.588;9.250;2023-03-17T11:53:55;18.30;99.90
18041;DHT22;9145;48.588;9.250;2023-03-17T11:56:33;18.50;99.90
18041;DHT22;9145;48.588;9.250;2023-03-17T11:59:05;18.50;99.90
18041;DHT22;9145;48.588;9.250;2023-03-17T12:01:44;18.60;99.90
18041;DHT22;9145;48.588;9.250;2023-03-17T12:04:17;18.60;99.90
18041;DHT22;9145;48.588;9.250;2023-03-17T12:06:49;18.90;99.90
18041;DHT22;9145;48.588;9.250;2023-03-17T12:09:23;19.00;98.70
18041;DHT22;9145;48.588;9.250;2023-03-17T12:11:51;19.00;99.10
18041;DHT22;9145;48.588;9.250;2023-03-17T12:14:24;19.10;99.90
18041;DHT22;9145;48.588;9.250;2023-03-17T12:16:57;19.10;99.10
18041;DHT22;9145;48.588;9.250;2023-03-17T12:19:29;19.30;99.90
18041;DHT22;9145;48.588;9.250;2023-03-17T12:22:05;19.60;99.90
18041;DHT22;9145;48.588;9.250;2023-03-17T12:24:38;19.80;98.30
18041;DHT22;9145;48.588;9.250;2023-03-17T12:27:10;20.00;98.50
18041;DHT22;9145;48.588;9.250;2023-03-17T12:29:42;20.00;97.80
18041;DHT22;9145;48.588;9.250;2023-03-17T12:32:17;20.10;97.20
18041;DHT22;9145;48.588;9.250;2023-03-17T12:34:49;20.00;97.60
18041;DHT22;9145;48.588;9.250;2023-03-17T12:37:18;20.10;97.10
18041;DHT22;9145;48.588;9.250;2023-03-17T12:39:51;20.00;98.00
18041;DHT22;9145;48.588;9.250;2023-03-17T12:42:28;20.00;97.70
18041;DHT22;9145;48.588;9.250;2023-03-17T12:48:38;20.00;96.20
18041;DHT22;9145;48.588;9.250;2023-03-17T12:51:41;20.00;97.50
18041;DHT22;9145;48.588;9.250;2023-03-17T12:54:17;20.30;99.20
18041;DHT22;9145;48.588;9.250;2023-03-17T12:56:48;20.40;96.40
18041;DHT22;9145;48.588;9.250;2023-03-17T12:59:18;20.50;97.30
18041;DHT22;9145;48.588;9.250;2023-03-17T13:01:53;20.50;95.90
18041;DHT22;9145;48.588;9.250;2023-03-17T13:04:24;20.30;95.30
18041;DHT22;9145;48.588;9.250;2023-03-17T13:07:00;20.30;96.30
18041;DHT22;9145;48.588;9.250;2023-03-17T13:09:41;20.20;95.70
18041;DHT22;9145;48.588;9.250;2023-03-17T13:12:34;20.10;96.30
18041;DHT22;9145;48.588;9.250;2023-03-17T13:15:01;20.10;96.50
18041;DHT22;9145;48.588;9.250;2023-03-17T13:17:32;20.10;97.90
18041;DHT22;9145;48.588;9.250;2023-03-17T13:20:12;20.20;97.00
18041;DHT22;9145;48.588;9.250;2023-03-17T13:22:41;20.30;98.30
18041;DHT22;9145;48.588;9.250;2023-03-17T13:25:17;20.20;97.10
18041;DHT22;9145;48.588;9.250;2023-03-17T13:27:52;20.30;96.30
18041;DHT22;9145;48.588;9.250;2023-03-17T13:30:41;20.40;96.10
18041;DHT22;9145;48.588;9.250;2023-03-17T13:33:18;20.50;96.90
18041;DHT22;9145;48.588;9.250;2023-03-17T13:36:08;20.60;96.60
18041;DHT22;9145;48.588;9.250;2023-03-17T13:42:07;20.80;95.10
18041;DHT22;9145;48.588;9.250;2023-03-17T13:45:00;20.90;95.00
18041;DHT22;9145;48.588;9.250;2023-03-17T13:47:33;21.10;96.00
18041;DHT22;9145;48.588;9.250;2023-03-17T13:50:05;21.20;95.20
18041;DHT22;9145;48.588;9.250;2023-03-17T13:52:38;21.40;93.80
18041;DHT22;9145;48.588;9.250;2023-03-17T13:55:31;21.50;94.30
18041;DHT22;9145;48.588;9.250;2023-03-17T13:58:19;21.60;92.30
18041;DHT22;9145;48.588;9.250;2023-03-17T14:00:48;21.70;93.00
18041;DHT22;9145;48.588;9.250;2023-03-17T14:03:27;21.80;91.80
18041;DHT22;9145;48.588;9.250;2023-03-17T14:05:54;21.80;91.60
18041;DHT22;9145;48.588;9.250;2023-03-17T14:08:27;21.80;91.40
18041;DHT22;9145;48.588;9.250;2023-03-17T14:10:56;21.90;91.70
18041;DHT22;9145;48.588;9.250;2023-03-17T14:13:28;22.00;91.50
18041;DHT22;9145;48.588;9.250;2023-03-17T14:16:00;22.00;92.30
18041;DHT22;9145;48.588;9.250;2023-03-17T14:18:31;22.10;92.60
18041;DHT22;9145;48.588;9.250;2023-03-17T14:21:00;22.00;92.50
18041;DHT22;9145;48.588;9.250;2023-03-17T14:23:30;21.90;92.00
18041;DHT22;9145;48.588;9.250;2023-03-17T14:25:58;21.90;92.50
18041;DHT22;9145;48.588;9.250;2023-03-17T14:28:32;21.80;92.80
18041;DHT22;9145;48.588;9.250;2023-03-17T14:31:01;21.80;93.00
18041;DHT22;9145;48.588;9.250;2023-03-17T14:33:30;21.60;92.30
18041;DHT22;9145;48.588;9.250;2023-03-17T14:35:59;21.60;93.10
18041;DHT22;9145;48.588;9.250;2023-03-17T14:38:28;21.50;93.30
18041;DHT22;9145;48.588;9.250;2023-03-17T14:41:00;21.60;93.50
18041;DHT22;9145;48.588;9.250;2023-03-17T14:43:30;21.60;94.00
18041;DHT22;9145;48.588;9.250;2023-03-17T14:45:59;21.60;93.60
18041;DHT22;9145;48.588;9.250;2023-03-17T14:48:29;21.50;93.00
18041;DHT22;9145;48.588;9.250;2023-03-17T14:50:59;21.40;93.20
18041;DHT22;9145;48.588;9.250;2023-03-17T14:53:30;21.20;92.40
18041;DHT22;9145;48.588;9.250;2023-03-17T14:55:58;21.10;93.00
18041;DHT22;9145;48.588;9.250;2023-03-17T14:58:30;21.00;92.70
18041;DHT22;9145;48.588;9.250;2023-03-17T15:01:03;20.90;93.70
18041;DHT22;9145;48.588;9.250;2023-03-17T15:03:31;20.90;92.60
18041;DHT22;9145;48.588;9.250;2023-03-17T15:06:04;21.00;93.20
18041;DHT22;9145;48.588;9.250;2023-03-17T15:08:39;21.10;93.40
18041;DHT22;9145;48.588;9.250;2023-03-17T15:11:13;21.20;93.00
18041;DHT22;9145;48.588;9.250;2023-03-17T15:13:43;21.20;92.60
18041;DHT22;9145;48.588;9.250;2023-03-17T15:16:19;21.10;92.20
18041;DHT22;9145;48.588;9.250;2023-03-17T15:18:49;21.00;92.30
18041;DHT22;9145;48.588;9.250;2023-03-17T15:21:27;20.90;92.20
18041;DHT22;9145;48.588;9.250;2023-03-17T15:23:54;20.80;92.70
18041;DHT22;9145;48.588;9.250;2023-03-17T15:26:23;20.70;92.70
18041;DHT22;9145;48.588;9.250;2023-03-17T15:28:56;20.60;92.90
18041;DHT22;9145;48.588;9.250;2023-03-17T15:31:23;20.60;93.50
18041;DHT22;9145;48.588;9.250;2023-03-17T15:33:53;20.50;93.50
18041;DHT22;9145;48.588;9.250;2023-03-17T15:36:20;20.50;92.50
18041;DHT22;9145;48.588;9.250;2023-03-17T15:38:47;20.50;93.10
18041;DHT22;9145;48.588;9.250;2023-03-17T15:41:14;20.40;93.40
18041;DHT22;9145;48.588;9.250;2023-03-17T15:43:41;20.40;93.50
18041;DHT22;9145;48.588;9.250;2023-03-17T15:46:17;20.30;93.50
18041;DHT22;9145;48.588;9.250;2023-03-17T15:48:46;20.20;93.60
18041;DHT22;9145;48.588;9.250;2023-03-17T15:51:13;20.20;93.70
18041;DHT22;9145;48.588;9.250;2023-03-17T15:53:40;20.10;93.90
18041;DHT22;9145;48.588;9.250;2023-03-17T15:56:13;20.10;94.10
18041;DHT22;9145;48.588;9.250;2023-03-17T15:58:40;20.10;93.90
18041;DHT22;9145;48.588;9.250;2023-03-17T16:01:09;20.00;93.80
18041;DHT22;9145;48.588;9.250;2023-03-17T16:03:37;20.00;94.20
18041;DHT22;9145;48.588;9.250;2023-03-17T16:06:12;20.00;93.90
18041;DHT22;9145;48.588;9.250;2023-03-17T16:08:40;19.90;93.90
18041;DHT22;9145;48.588;9.250;2023-03-17T16:11:13;19.90;92.70
18041;DHT22;9145;48.588;9.250;2023-03-17T16:13:41;19.90;93.50
18041;DHT22;9145;48.588;9.250;2023-03-17T16:16:16;19.80;94.40
18041;DHT22;9145;48.588;9.250;2023-03-17T16:18:46;19.80;93.90